Latest Coastal Weather Observations for Ngayawili (Elcho Island)

IDD60701

Issued at 7:41 am CST Saturday 3 December 2016 (issued every 10 minutes, with the page automatically refreshed every 10 minutes)

About coastal observations | Map of coastal stations | Coastal observations for NT | Marine services | Other Formats
Station Details ID: 014517 Name: NGAYAWILI Lat: -12.00 Lon: 135.57 Height: 8.1 m
Data from the previous 72 hours. | See also: Recent months at Ngayawili (Elcho Island)
Date/Time
CST
Temp
°C
Wind Pressure Rain since
9am
mm
Weather Cloud Vis
km
Sea
Height
m
Swell
Dir  Spd
kts
Gust
kts
hPa Trend Height
m
Period
s
Dir
03/07:30am 28.8 ENE 5 7 1010.6 - 1.8 - - - - - - -
03/07:00am 27.4 E 4 6 1010.6 - 1.8 - - - - - - -
03/06:30am 25.6 E 5 6 1010.2 - 1.8 - - - - - - -
03/06:00am 24.2 E 4 6 1009.8 - 1.8 - - - - - - -
03/05:30am 24.9 E 4 5 1009.2 - 1.8 - - - - - - -
03/05:00am 25.3 E 4 5 1009.2 - 1.8 - - - - - - -
03/04:30am 26.2 E 4 5 1009.0 - 1.8 - - - - - - -
03/04:00am 26.5 E 4 6 1008.8 - 1.8 - - - - - - -
03/03:30am 26.7 ENE 5 6 1009.0 - 1.8 - - - - - - -
03/03:00am 26.6 E 5 5 1009.0 - 1.8 - - - - - - -
03/02:30am 26.6 ENE 4 5 1009.2 - 1.8 - - - - - - -
03/02:00am 26.8 E 4 5 1009.1 - 1.8 - - - - - - -
03/01:30am 27.3 ENE 3 5 1009.2 - 1.8 - - - - - - -
03/01:00am 27.5 ENE 4 5 1009.3 - 1.8 - - - - - - -
03/12:30am 27.5 E 4 6 1009.7 - 1.8 - - - - - - -
03/12:00am 27.6 E 5 6 1010.1 - 1.8 - - - - - - -
 
Date/Time
CST
Temp
°C
Wind Pressure Rain since
9am
mm
Weather Cloud Vis
km
Sea
Height
m
Swell
Dir  Spd
kts
Gust
kts
hPa Trend Height
m
Period
s
Dir
02/11:30pm 27.8 ENE 4 6 1010.3 - 1.8 - - - - - - -
02/11:00pm 27.9 ENE 4 5 1010.5 - 1.8 - - - - - - -
02/10:30pm 28.1 ENE 4 6 1010.3 - 1.8 - - - - - - -
02/10:00pm 28.3 ENE 5 6 1009.9 - 1.8 - - - - - - -
02/09:30pm 28.1 ENE 5 6 1009.9 - 1.8 - - - - - - -
02/09:00pm 27.9 E 4 5 1009.5 - 1.8 - - - - - - -
02/08:30pm 28.2 ENE 4 5 1009.2 - 1.8 - - - - - - -
02/08:00pm 28.1 E 3 6 1008.9 - 1.8 - - - - - - -
02/07:30pm 28.6 ENE 5 6 1008.4 - 1.8 - - - - - - -
02/07:00pm 28.5 ENE 6 8 1008.0 - 1.8 - - - - - - -
02/06:30pm 28.9 ENE 7 10 1008.1 - 1.8 - - - - - - -
02/06:00pm 30.5 NE 12 18 1008.3 - 1.8 - - - - - - -
02/05:30pm 31.6 NNE 11 15 1008.0 - 1.8 - - - - - - -
02/05:00pm 32.4 N 11 15 1007.7 - 1.8 - - - - - - -
02/04:30pm 32.7 NNE 11 13 1007.6 - 1.8 - - - - - - -
02/04:00pm 32.0 N 12 14 1007.6 - 1.8 - - - - - - -
02/03:30pm 32.7 N 13 16 1007.6 - 1.8 - - - - - - -
02/03:00pm 32.4 N 11 14 1007.6 - 1.8 - - - - - - -
02/02:30pm 32.7 N 13 16 1007.9 - 1.8 - - - - - - -
02/02:00pm 32.4 N 13 15 1008.3 - 1.8 - - - - - - -
02/01:30pm 32.2 N 13 15 1008.5 - 1.8 - - - - - - -
02/01:00pm 32.0 N 10 12 1009.0 - 1.8 - - - - - - -
02/12:30pm 32.0 N 9 11 1009.3 - 1.8 - - - - - - -
02/12:00pm 31.3 N 9 10 1009.8 - 1.8 - - - - - - -
02/11:30am 31.1 N 6 8 1010.2 - 1.8 - - - - - - -
02/11:00am 30.0 NNW 4 6 1010.9 - 1.8 - - - - - - -
02/10:30am 28.8 NNW 8 9 1011.2 - 1.8 - - - - - - -
02/10:00am 28.0 NNW 9 13 1011.5 - 1.8 - - - - - - -
02/09:30am 26.7 N 9 13 1011.7 - 1.6 - - - - - - -
02/09:00am 29.5 N 12 15 1011.1 - - - - - - - - -
02/08:30am 31.1 NE 6 9 1010.8 - - - - - - - - -
02/08:00am 30.2 NE 7 12 1010.7 - - - - - - - - -
02/07:30am 29.5 ENE 3 6 1010.2 - - - - - - - - -
02/07:00am 28.1 NNW 6 11 1009.8 - - - - - - - - -
02/06:30am 28.0 SE 4 5 1009.4 - - - - - - - - -
02/06:00am 27.5 SE 5 5 1009.1 - - - - - - - - -
02/05:30am 28.2 ENE 4 5 1008.7 - - - - - - - - -
02/05:00am 28.6 NE 5 7 1008.4 - - - - - - - - -
02/04:30am 29.1 N 9 12 1008.2 - - - - - - - - -
02/04:00am 29.3 N 9 13 1008.3 - - - - - - - - -
02/03:30am 29.3 N 10 13 1008.1 - - - - - - - - -
02/03:00am 29.2 N 10 12 1008.1 - - - - - - - - -
02/02:30am 29.3 N 8 11 1008.1 - - - - - - - - -
02/02:00am 29.3 N 10 13 1008.0 - - - - - - - - -
02/01:30am 29.5 N 11 14 1007.9 - - - - - - - - -
02/01:00am 29.4 NNE 7 10 1008.1 - - - - - - - - -
02/12:30am 29.4 N 9 12 1008.7 - - - - - - - - -
02/12:00am 29.6 NNE 10 13 1008.6 - - - - - - - - -
 
Date/Time
CST
Temp
°C
Wind Pressure Rain since
9am
mm
Weather Cloud Vis
km
Sea
Height
m
Swell
Dir  Spd
kts
Gust
kts
hPa Trend Height
m
Period
s
Dir
01/11:30pm 29.5 NNE 8 12 1008.8 - - - - - - - - -
01/11:00pm 29.6 N 10 13 1009.1 - - - - - - - - -
01/10:30pm 29.9 N 11 14 1009.1 - - - - - - - - -
01/10:00pm 30.1 N 10 12 1008.9 - - - - - - - - -
01/09:00pm 29.7 NNE 8 10 1008.3 - 0.0 - - - - - - -
01/08:30pm 29.9 N 8 9 1008.1 - 0.0 - - - - - - -
01/08:00pm 30.1 N 8 10 1007.9 - 0.0 - - - - - - -
01/07:30pm 30.0 N 11 13 1006.9 - 0.0 - - - - - - -
01/07:00pm 30.2 N 11 14 1006.8 - 0.0 - - - - - - -
01/06:30pm 30.1 N 12 16 1006.7 - 0.0 - - - - - - -
01/06:00pm 30.3 N 9 12 1006.8 - 0.0 - - - - - - -
01/05:30pm 30.6 N 12 14 1006.4 - 0.0 - - - - - - -
01/05:00pm 31.0 N 11 13 1006.2 - 0.0 - - - - - - -
01/04:30pm 31.4 N 12 14 1005.9 - 0.0 - - - - - - -
01/04:00pm 32.1 N 12 14 1005.7 - 0.0 - - - - - - -
01/03:30pm 32.1 N 11 14 1006.3 - 0.0 - - - - - - -
01/03:00pm 32.6 NNW 10 12 1006.9 - 0.0 - - - - - - -
01/02:30pm 32.7 NNW 11 13 1007.2 - 0.0 - - - - - - -
01/02:00pm 33.2 NNW 9 12 1007.5 - 0.0 - - - - - - -
01/01:30pm 32.6 NNW 9 11 1007.8 - 0.0 - - - - - - -
01/01:00pm 32.9 NNW 9 11 1008.3 - 0.0 - - - - - - -
01/12:30pm 32.5 NNW 9 11 1008.6 - 0.0 - - - - - - -
01/12:00pm 32.5 N 8 9 1008.9 - 0.0 - - - - - - -
01/11:30am 32.2 N 9 11 1009.1 - 0.0 - - - - - - -
01/11:00am 32.1 NNW 9 11 1009.3 - 0.0 - - - - - - -
01/10:30am 32.0 N 8 11 1009.7 - 0.0 - - - - - - -
01/10:00am 31.8 N 9 11 1010.0 - 0.0 - - - - - - -
01/09:30am 31.5 NNW 8 10 1010.0 - 0.0 - - - - - - -
01/09:00am 31.0 N 8 10 1010.1 - 8.4 - - - - - - -
01/08:30am 29.5 NNW 3 4 1009.9 - 8.4 - - - - - - -
01/08:00am 28.9 CALM 0 0 1009.6 - 8.4 - - - - - - -
01/07:30am 28.3 SE 5 6 1009.6 - 8.4 - - - - - - -
01/07:00am 26.9 ESE 4 5 1009.1 - 8.4 - - - - - - -
01/06:30am 26.3 SE 6 7 1008.9 - 8.4 - - - - - - -
01/06:00am 26.1 SE 5 7 1008.5 - 8.4 - - - - - - -
01/05:30am 26.1 ESE 4 5 1008.1 - 8.4 - - - - - - -
01/05:00am 26.1 ESE 4 4 1007.9 - 8.4 - - - - - - -
01/04:30am 26.1 ESE 4 5 1007.7 - 8.4 - - - - - - -
01/04:00am 26.3 SSE 6 7 1007.8 - 8.4 - - - - - - -
01/03:30am 26.4 SE 5 6 1007.8 - 8.4 - - - - - - -
01/03:00am 26.4 SE 5 5 1007.8 - 8.4 - - - - - - -
01/02:30am 26.5 SE 3 4 1007.9 - 8.4 - - - - - - -
01/02:00am 26.5 SE 4 5 1008.0 - 8.4 - - - - - - -
01/01:30am 26.5 SE 4 5 1008.1 - 8.4 - - - - - - -
01/01:00am 26.7 SSE 5 6 1008.5 - 8.4 - - - - - - -
01/12:30am 27.0 SSE 5 7 1008.8 - 8.4 - - - - - - -
01/12:00am 27.2 SE 4 5 1008.9 - 8.4 - - - - - - -
 
Date/Time
CST
Temp
°C
Wind Pressure Rain since
9am
mm
Weather Cloud Vis
km
Sea
Height
m
Swell
Dir  Spd
kts
Gust
kts
hPa Trend Height
m
Period
s
Dir
30/11:30pm 27.2 SE 3 5 1009.1 - 8.4 - - - - - - -
30/11:00pm 27.7 SE 4 5 1009.1 - 8.4 - - - - - - -
30/10:30pm 29.0 NW 4 5 1008.5 - 8.4 - - - - - - -
30/10:00pm 29.3 NW 6 8 1008.6 - 8.4 - - - - - - -
30/09:30pm 29.2 WNW 8 9 1008.4 - 8.4 - - - - - - -
30/09:00pm 29.3 NW 11 13 1007.9 - 8.4 - - - - - - -
30/08:30pm 29.2 NW 11 14 1007.8 - 8.4 - - - - - - -
30/08:00pm 29.4 WNW 10 13 1007.7 - 8.4 - - - - - - -
30/07:30pm 29.4 W 8 11 1008.0 - 8.4 - - - - - - -
30/07:00pm 29.4 WSW 7 9 1007.9 - 8.4 - - - - - - -
30/06:30pm 29.3 W 7 8 1008.1 - 8.4 - - - - - - -
30/06:00pm 29.3 WNW 6 7 1008.1 - 8.4 - - - - - - -
30/05:30pm 29.5 NNW 8 9 1007.3 - 8.4 - - - - - - -
30/05:00pm 29.7 N 8 9 1006.7 - 8.4 - - - - - - -
30/04:30pm 30.0 N 13 16 1006.6 - 8.4 - - - - - - -
30/04:00pm 30.5 N 15 17 1006.7 - 8.4 - - - - - - -
30/03:30pm 29.8 N 12 15 1006.7 - 8.4 - - - - - - -
30/03:00pm 29.4 NNE 11 15 1006.9 - 8.4 - - - - - - -
30/02:30pm 27.9 NNE 11 17 1007.6 - 8.4 - - - - - - -
30/02:00pm 26.7 NNE 5 8 1008.6 - 8.4 - - - - - - -
30/01:30pm 26.1 NE 5 7 1008.9 - 8.4 - - - - - - -
30/01:00pm 25.6 ESE 6 8 1009.3 - 8.4 - - - - - - -
30/12:30pm 25.3 ESE 7 11 1010.5 - 8.4 - - - - - - -
30/12:00pm 24.9 SE 8 12 1010.1 - 8.4 Recent precip. - - - - - -
30/11:30am 24.6 SE 9 13 1010.4 - 8.0 - - - - - - -
30/11:00am 24.5 SSE 11 16 1010.2 - 6.8 - - - - - - -
30/10:30am 25.4 SSE 15 24 1009.9 - 0.0 - - - - - - -
30/10:21am 25.4 SSE 15 26 1009.8 - 0.0 - - - - - - -
30/10:00am 30.5 N 8 11 1009.9 - 0.0 - - - - - - -
30/09:30am 30.9 N 9 10 1009.3 - 0.0 - - - - - - -
30/09:00am 31.6 NNW 10 12 1009.5 - 0.0 - - - - - - -
30/08:30am 31.3 NNW 9 11 1009.1 - 0.0 - - - - - - -
30/08:00am 31.0 NNW 10 12 1009.3 - 0.0 - - - - - - -

Other Formats:

Comma delimited format used in spreadsheet applications
http://www.bom.gov.au/fwo/IDD60701/IDD60701.95146.axf

JavaScript Object Notation format (JSON) in row-major order
http://www.bom.gov.au/fwo/IDD60701/IDD60701.95146.json